Time;durP1;ratioP1;P1;durP2;ratioP2;P2;SDS_P1;SDS_P2;PMS_P1;PMS_P2;Temp;Humidity;BMP_temperature;BMP_pressure;BME280_temperature;BME280_humidity;BME280_pressure;Samples;Min_cycle;Max_cycle;Signal;HPM_P1;HPM_P2
2022/12/13 00:01:27;;;;;;;2.50;0.70;;;26.70;45.00;;;;;;4935829;29;20193;-73
2022/12/13 00:03:56;;;;;;;3.60;0.53;;;26.60;44.50;;;;;;4935826;29;20241;-72
2022/12/13 00:06:24;;;;;;;4.57;0.60;;;26.30;49.50;;;;;;4935136;29;20189;-69
2022/12/13 00:08:52;;;;;;;3.23;0.50;;;26.80;45.80;;;;;;4935391;29;20188;-74
2022/12/13 00:11:19;;;;;;;3.80;0.77;;;26.80;46.10;;;;;;4935180;29;20223;-69
2022/12/13 00:13:46;;;;;;;4.60;1.10;;;26.80;45.90;;;;;;4935071;29;20197;-69
2022/12/13 00:16:21;;;;;;;2.07;0.50;;;27.00;45.50;;;;;;4935401;29;20212;-73
2022/12/13 00:18:51;;;;;;;6.80;1.13;;;27.30;44.20;;;;;;4935113;29;20550;-68
2022/12/13 00:21:20;;;;;;;4.40;1.00;;;27.50;44.20;;;;;;4935124;29;20176;-68
2022/12/13 00:23:48;;;;;;;3.70;0.60;;;27.20;41.10;;;;;;4934812;29;20185;-68
2022/12/13 00:26:25;;;;;;;2.67;0.53;;;27.40;42.10;;;;;;4935255;29;20189;-72
2022/12/13 00:28:53;;;;;;;3.33;0.60;;;27.60;43.30;;;;;;4934675;29;20188;-74
2022/12/13 00:31:24;;;;;;;4.33;0.73;;;27.90;42.60;;;;;;4935476;29;20181;-69
2022/12/13 00:33:52;;;;;;;4.67;0.80;;;28.00;40.90;;;;;;4935191;29;20212;-72
2022/12/13 00:36:20;;;;;;;4.13;0.63;;;28.10;39.80;;;;;;4934633;29;20199;-71
2022/12/13 00:38:59;;;;;;;1.07;0.47;;;28.20;40.00;;;;;;4934628;29;20212;-68
2022/12/13 00:41:29;;;;;;;2.17;0.90;;;28.50;39.80;;;;;;4935242;29;20230;-69
2022/12/13 00:43:57;;;;;;;3.10;0.70;;;29.00;37.10;;;;;;4934673;29;20173;-70
2022/12/13 00:46:25;;;;;;;4.43;0.90;;;29.10;34.20;;;;;;4933900;29;20662;-72
2022/12/13 00:48:55;;;;;;;2.37;0.40;;;28.70;36.30;;;;;;4934994;29;20666;-68
2022/12/13 00:51:25;;;;;;;2.77;0.60;;;29.00;31.60;;;;;;4934517;29;20303;-70
2022/12/13 00:53:52;;;;;;;1.93;0.70;;;28.90;35.10;;;;;;4935143;29;20726;-75
2022/12/13 00:56:24;;;;;;;11.27;0.67;;;29.20;30.00;;;;;;4934986;29;20682;-73
2022/12/13 00:58:52;;;;;;;5.47;0.80;;;28.90;33.00;;;;;;4934260;29;20212;-71
2022/12/13 01:01:23;;;;;;;2.43;0.60;;;28.60;29.10;;;;;;4934649;29;20192;-73
2022/12/13 01:03:52;;;;;;;3.10;0.60;;;28.40;28.80;;;;;;4935040;29;20566;-69
2022/12/13 01:06:41;;;;;;;4.87;0.60;;;28.80;31.30;;;;;;4934528;29;20294;-73
2022/12/13 01:09:21;;;;;;;4.07;0.70;;;28.30;28.30;;;;;;4937387;29;20193;-68
2022/12/13 01:11:49;;;;;;;4.27;0.87;;;28.70;28.30;;;;;;4938048;29;20672;-69
2022/12/13 01:14:18;;;;;;;4.20;0.60;;;28.80;29.50;;;;;;4937205;29;20184;-71
2022/12/13 01:16:45;;;;;;;2.53;0.60;;;28.80;27.70;;;;;;4935602;29;20714;-75
2022/12/13 01:19:13;;;;;;;3.47;0.50;;;29.00;27.80;;;;;;4934383;29;20220;-69
2022/12/13 01:21:41;;;;;;;0.80;0.30;;;29.10;26.60;;;;;;4934000;29;20232;-69
2022/12/13 01:24:08;;;;;;;1.73;0.40;;;28.90;27.40;;;;;;4934683;29;20188;-70
2022/12/13 01:26:35;;;;;;;2.87;0.60;;;28.90;27.80;;;;;;4935110;29;20221;-68
2022/12/13 01:29:04;;;;;;;2.40;0.50;;;28.90;26.40;;;;;;4934294;29;20180;-68
2022/12/13 01:31:32;;;;;;;8.13;0.70;;;29.30;25.80;;;;;;4934648;29;20200;-71
2022/12/13 01:34:09;;;;;;;4.83;1.23;;;29.30;25.40;;;;;;4933911;29;20184;-69
2022/12/13 01:36:37;;;;;;;8.70;0.77;;;29.30;26.10;;;;;;4937857;29;20196;-70
2022/12/13 01:39:05;;;;;;;7.93;0.60;;;29.30;27.90;;;;;;4938312;29;20223;-69
2022/12/13 01:41:33;;;;;;;6.43;0.63;;;29.30;25.40;;;;;;4937594;29;20201;-72
2022/12/13 01:44:06;;;;;;;1.43;0.50;;;29.30;25.90;;;;;;4936385;29;20180;-76
2022/12/13 01:46:36;;;;;;;5.87;1.00;;;29.20;23.50;;;;;;4937330;29;20192;-72
2022/12/13 01:49:11;;;;;;;3.90;0.53;;;28.80;25.50;;;;;;4937730;29;20189;-72
2022/12/13 01:52:02;;;;;;;4.17;0.60;;;29.10;24.60;;;;;;4950418;29;20313;-72
2022/12/13 01:54:35;;;;;;;1.23;0.40;;;29.70;23.80;;;;;;4953760;29;20185;-73
2022/12/13 01:57:06;;;;;;;3.87;0.70;;;29.40;27.10;;;;;;4938032;29;20649;-69
2022/12/13 01:59:36;;;;;;;1.53;0.50;;;29.20;24.00;;;;;;4937196;29;20264;-72
2022/12/13 02:02:06;;;;;;;3.90;0.80;;;29.00;25.70;;;;;;4937967;29;20184;-70
2022/12/13 02:05:12;;;;;;;2.03;0.80;;;29.40;25.20;;;;;;4937822;29;20177;-75
2022/12/13 02:07:42;;;;;;;2.03;0.50;;;29.50;25.10;;;;;;4937307;29;20275;-69
2022/12/13 02:10:11;;;;;;;2.50;0.50;;;29.60;24.00;;;;;;4920781;29;20710;-73
2022/12/13 02:12:40;;;;;;;2.20;0.60;;;29.20;23.30;;;;;;4937223;29;20196;-73
2022/12/13 02:15:16;;;;;;;1.33;0.47;;;29.00;22.50;;;;;;4937609;29;20560;-69
2022/12/13 02:18:00;;;;;;;2.53;0.53;;;29.20;24.50;;;;;;4937501;29;20199;-70
2022/12/13 02:20:42;;;;;;;3.60;0.60;;;29.30;23.90;;;;;;4937263;29;20224;-73
2022/12/13 02:23:49;;;;;;;3.57;0.57;;;29.50;24.10;;;;;;4920343;29;20600;-72
2022/12/13 02:26:30;;;;;;;4.50;0.87;;;29.80;26.60;;;;;;4937490;29;20189;-74
2022/12/13 02:29:19;;;;;;;2.03;0.60;;;29.60;24.30;;;;;;4937421;29;20656;-72
2022/12/13 02:31:56;;;;;;;3.30;0.40;;;29.40;24.40;;;;;;4937593;29;20259;-72
2022/12/13 02:34:31;;;;;;;6.87;0.60;;;29.50;24.20;;;;;;4936792;29;20643;-74
2022/12/13 02:37:16;;;;;;;3.97;0.63;;;30.00;22.30;;;;;;4920142;29;20538;-69
2022/12/13 02:39:51;;;;;;;2.00;0.47;;;30.10;24.50;;;;;;4923043;29;20287;-69
2022/12/13 02:42:34;;;;;;;0.50;0.43;;;30.10;25.90;;;;;;4938985;29;20238;-73
2022/12/13 02:45:18;;;;;;;4.53;0.70;;;29.80;22.30;;;;;;4949168;29;20192;-76
2022/12/13 02:47:47;;;;;;;2.57;0.50;;;29.80;24.10;;;;;;4936489;29;20193;-78
2022/12/13 02:50:15;;;;;;;1.87;0.50;;;29.60;23.90;;;;;;4935911;29;20184;-74
2022/12/13 02:52:45;;;;;;;2.50;0.40;;;29.60;25.50;;;;;;4936690;29;20621;-73
2022/12/13 02:55:15;;;;;;;1.03;0.40;;;29.40;22.10;;;;;;4936613;29;20180;-73
2022/12/13 02:57:45;;;;;;;3.17;0.40;;;29.60;23.60;;;;;;4936135;29;20191;-75
2022/12/13 03:00:20;;;;;;;4.20;0.67;;;29.60;23.30;;;;;;4936517;29;20260;-74
2022/12/13 03:03:22;;;;;;;3.40;0.60;;;29.80;24.40;;;;;;4936055;29;20192;-74
2022/12/13 03:08:57;;;;;;;2.90;0.60;;;29.60;22.10;;;;;;4936321;29;20199;-73
2022/12/13 03:14:18;;;;;;;3.07;0.80;;;30.10;20.60;;;;;;4936065;29;20666;-73
2022/12/13 03:16:49;;;;;;;4.90;0.87;;;30.20;22.00;;;;;;4936404;29;20181;-73
2022/12/13 03:19:16;;;;;;;2.23;0.67;;;30.60;27.90;;;;;;4935573;29;20220;-76
2022/12/13 03:21:47;;;;;;;6.17;0.63;;;30.60;23.20;;;;;;4936176;29;20210;-73
2022/12/13 03:24:20;;;;;;;1.30;0.40;;;30.60;22.90;;;;;;4936406;29;20185;-73
2022/12/13 03:26:49;;;;;;;0.80;0.30;;;30.40;20.70;;;;;;4937234;29;20184;-73
2022/12/13 03:29:18;;;;;;;3.33;0.80;;;29.90;17.90;;;;;;4937303;29;20181;-75
2022/12/13 03:31:46;;;;;;;3.20;0.50;;;29.80;19.00;;;;;;4937041;29;20185;-74
2022/12/13 03:34:13;;;;;;;6.30;0.47;;;29.80;18.80;;;;;;4936775;29;20184;-72
2022/12/13 03:36:41;;;;;;;3.37;0.77;;;29.60;20.60;;;;;;4936788;29;20247;-72
2022/12/13 03:39:09;;;;;;;2.27;0.53;;;29.60;21.30;;;;;;4936251;29;20240;-73
2022/12/13 03:41:37;;;;;;;4.20;0.57;;;29.80;20.70;;;;;;4936828;29;20599;-73
2022/12/13 03:44:06;;;;;;;3.03;0.50;;;30.00;20.80;;;;;;4936293;29;20626;-72
2022/12/13 03:46:35;;;;;;;1.60;0.33;;;29.90;19.20;;;;;;4937025;29;20275;-72
2022/12/13 03:49:03;;;;;;;2.00;0.50;;;30.30;21.10;;;;;;4936934;29;20600;-71
2022/12/13 03:51:30;;;;;;;1.20;0.30;;;30.40;20.60;;;;;;4936486;29;20228;-72
2022/12/13 03:53:58;;;;;;;0.60;0.40;;;30.30;22.30;;;;;;4936777;29;20216;-73
2022/12/13 03:56:26;;;;;;;1.50;0.60;;;30.40;20.80;;;;;;4936420;29;20185;-72
2022/12/13 03:58:54;;;;;;;5.70;0.50;;;30.30;20.40;;;;;;4935930;29;20250;-71
2022/12/13 04:01:22;;;;;;;2.67;0.50;;;30.50;20.60;;;;;;4936255;29;20224;-71
2022/12/13 04:03:50;;;;;;;5.30;0.63;;;30.20;20.50;;;;;;4936560;29;20192;-72
2022/12/13 04:06:18;;;;;;;2.87;0.50;;;30.20;21.70;;;;;;4936405;29;20193;-71
2022/12/13 04:08:45;;;;;;;3.60;0.70;;;30.60;21.30;;;;;;4936703;29;20279;-72
2022/12/13 04:13:59;;;;;;;2.13;0.50;;;30.30;20.10;;;;;;4934846;29;20200;-73
2022/12/13 04:16:27;;;;;;;4.23;0.60;;;30.10;16.40;;;;;;4935620;29;20192;-73
2022/12/13 04:18:55;;;;;;;3.37;0.73;;;30.10;18.80;;;;;;4934854;29;20205;-74
2022/12/13 04:21:22;;;;;;;4.57;0.87;;;30.20;19.40;;;;;;4935132;29;20189;-73
2022/12/13 04:23:50;;;;;;;2.80;0.53;;;30.50;20.00;;;;;;4935121;29;20236;-74
2022/12/13 04:26:18;;;;;;;4.33;0.97;;;30.70;19.80;;;;;;4934705;29;20220;-74
2022/12/13 04:28:46;;;;;;;5.70;0.60;;;30.80;20.10;;;;;;4935194;29;20276;-73
2022/12/13 04:31:13;;;;;;;1.83;0.50;;;30.40;18.50;;;;;;4934770;29;20264;-73
2022/12/13 04:33:41;;;;;;;5.47;0.40;;;30.40;20.40;;;;;;4934168;29;20212;-73
2022/12/13 04:36:09;;;;;;;3.07;0.73;;;30.40;20.10;;;;;;4934561;29;20564;-73
2022/12/13 04:38:37;;;;;;;2.60;0.50;;;30.20;18.80;;;;;;4934887;29;20185;-73
2022/12/13 04:41:06;;;;;;;3.43;0.50;;;30.40;19.60;;;;;;4934320;29;20265;-74
2022/12/13 04:43:34;;;;;;;4.57;0.43;;;30.50;18.30;;;;;;4934949;29;20188;-75
2022/12/13 04:46:02;;;;;;;0.40;0.30;;;30.50;19.20;;;;;;4934751;29;20192;-73
2022/12/13 04:48:31;;;;;;;4.90;0.50;;;30.60;19.50;;;;;;4934675;29;20203;-74
2022/12/13 04:51:00;;;;;;;1.87;0.47;;;30.30;18.40;;;;;;4934590;29;20289;-73
2022/12/13 04:53:28;;;;;;;5.83;0.90;;;30.40;19.20;;;;;;4934275;29;20283;-74
2022/12/13 04:55:57;;;;;;;2.10;0.60;;;30.70;20.20;;;;;;4934122;29;20183;-72
2022/12/13 04:58:24;;;;;;;3.27;0.40;;;30.60;18.70;;;;;;4934716;29;20353;-73
2022/12/13 05:00:52;;;;;;;4.20;0.70;;;30.70;19.80;;;;;;4934600;29;20230;-74
2022/12/13 05:03:20;;;;;;;3.50;0.50;;;30.80;19.40;;;;;;4933996;29;20199;-73
2022/12/13 05:05:48;;;;;;;0.80;0.43;;;30.70;19.20;;;;;;4934575;29;20536;-74
2022/12/13 05:08:16;;;;;;;4.27;0.60;;;30.80;20.00;;;;;;4934532;29;20192;-71
2022/12/13 05:10:44;;;;;;;4.30;0.50;;;30.50;19.60;;;;;;4933684;29;20673;-74
2022/12/13 05:13:12;;;;;;;5.30;1.13;;;30.40;20.30;;;;;;4934498;29;20180;-71
2022/12/13 05:15:39;;;;;;;3.07;0.60;;;30.60;19.50;;;;;;4934139;29;20215;-72
2022/12/13 05:18:07;;;;;;;1.10;0.50;;;30.60;19.30;;;;;;4933861;29;20192;-72
2022/12/13 05:20:36;;;;;;;1.45;0.52;;;31.00;20.50;;;;;;4933988;29;20271;-73
2022/12/13 05:23:04;;;;;;;5.30;0.50;;;31.20;20.30;;;;;;4934637;29;20558;-73
2022/12/13 05:25:35;;;;;;;1.77;0.65;;;31.20;19.10;;;;;;4933657;29;20184;-73
2022/12/13 05:28:03;;;;;;;5.70;1.00;;;30.90;18.60;;;;;;4932990;29;20563;-72
2022/12/13 05:30:31;;;;;;;1.90;0.40;;;30.60;18.30;;;;;;4944297;29;20561;-72
2022/12/13 05:32:59;;;;;;;3.80;1.00;;;30.30;19.00;;;;;;4933508;29;20913;-73
2022/12/13 05:35:27;;;;;;;1.70;0.40;;;30.40;21.10;;;;;;4934168;29;20185;-73
2022/12/13 05:37:55;;;;;;;2.43;0.60;;;30.00;18.70;;;;;;4933226;29;20183;-72
2022/12/13 05:40:29;;;;;;;3.60;0.40;;;29.90;19.30;;;;;;4933561;29;20209;-72
2022/12/13 05:42:57;;;;;;;6.13;0.67;;;29.80;18.70;;;;;;4933797;29;20184;-71
2022/12/13 05:45:25;;;;;;;3.70;0.47;;;29.90;19.60;;;;;;4934136;29;20658;-72
2022/12/13 05:47:53;;;;;;;3.00;0.50;;;29.80;19.40;;;;;;4933562;29;20195;-72
2022/12/13 05:50:21;;;;;;;5.40;0.57;;;29.70;19.20;;;;;;4920302;29;20247;-72
2022/12/13 05:52:51;;;;;;;3.20;0.70;;;30.00;20.20;;;;;;4934170;29;20201;-73
2022/12/13 05:55:19;;;;;;;5.63;1.00;;;30.10;19.20;;;;;;4933769;29;20197;-73
2022/12/13 05:57:47;;;;;;;3.03;0.70;;;29.70;18.20;;;;;;4932396;29;20195;-72
2022/12/13 06:00:15;;;;;;;2.70;0.70;;;29.70;19.80;;;;;;4934069;29;20220;-73
2022/12/13 06:02:44;;;;;;;3.50;0.70;;;29.60;18.20;;;;;;4933555;29;20184;-72
2022/12/13 06:05:12;;;;;;;3.27;0.77;;;29.60;20.10;;;;;;4933010;29;20192;-72
2022/12/13 06:07:40;;;;;;;9.27;0.80;;;29.30;19.50;;;;;;4933994;29;20679;-72
2022/12/13 06:10:10;;;;;;;2.80;0.80;;;29.60;20.10;;;;;;4932879;29;20201;-73
2022/12/13 06:12:38;;;;;;;5.67;0.77;;;29.60;18.90;;;;;;4933979;29;20255;-72
2022/12/13 06:15:06;;;;;;;5.43;0.70;;;29.90;18.40;;;;;;4932643;29;20207;-73
2022/12/13 06:17:37;;;;;;;2.37;0.50;;;30.10;17.30;;;;;;4933362;29;20192;-73
2022/12/13 06:20:06;;;;;;;2.37;0.50;;;30.20;18.00;;;;;;4933793;29;20695;-72
2022/12/13 06:22:34;;;;;;;3.97;0.60;;;30.10;17.40;;;;;;4936506;29;20557;-73
2022/12/13 06:25:02;;;;;;;1.80;0.50;;;29.90;16.20;;;;;;4918571;29;20197;-73
2022/12/13 06:27:29;;;;;;;0.27;0.20;;;29.80;16.90;;;;;;4937266;29;20208;-73
2022/12/13 06:29:57;;;;;;;3.20;0.60;;;29.60;16.20;;;;;;4937189;29;20666;-74
2022/12/13 06:32:25;;;;;;;6.30;0.77;;;29.50;15.50;;;;;;4936909;29;20509;-75
2022/12/13 06:34:53;;;;;;;6.93;1.40;;;29.30;16.90;;;;;;4935433;29;20195;-72
2022/12/13 06:37:21;;;;;;;2.23;0.60;;;29.20;17.10;;;;;;4936443;29;20240;-73
2022/12/13 06:39:49;;;;;;;3.13;0.50;;;29.20;16.90;;;;;;4936829;29;20230;-73
2022/12/13 06:42:18;;;;;;;4.03;0.43;;;29.10;17.90;;;;;;4937102;29;20192;-73
2022/12/13 06:44:50;;;;;;;2.13;0.70;;;29.00;17.90;;;;;;4936988;29;20185;-73
2022/12/13 06:47:18;;;;;;;4.00;0.67;;;29.00;18.20;;;;;;4936329;29;20180;-73
2022/12/13 06:49:46;;;;;;;3.30;0.47;;;29.30;18.00;;;;;;4936836;29;20181;-74
2022/12/13 06:52:14;;;;;;;2.73;0.73;;;29.40;17.10;;;;;;4935146;29;20348;-73
2022/12/13 06:54:42;;;;;;;3.83;0.90;;;29.40;17.80;;;;;;4936197;29;20200;-74
2022/12/13 06:57:11;;;;;;;6.43;0.53;;;29.30;16.50;;;;;;4936582;29;20192;-72
2022/12/13 06:59:39;;;;;;;0.97;0.40;;;29.20;16.90;;;;;;4936543;29;20209;-73
2022/12/13 07:02:07;;;;;;;3.40;0.80;;;29.00;17.30;;;;;;4936241;29;20679;-73
2022/12/13 07:04:35;;;;;;;3.97;0.50;;;28.90;18.10;;;;;;4936469;29;20242;-72
2022/12/13 07:07:03;;;;;;;2.30;0.60;;;29.00;18.20;;;;;;4936335;29;20177;-73
2022/12/13 07:09:31;;;;;;;2.83;0.67;;;29.00;17.70;;;;;;4936984;29;20264;-73
2022/12/13 07:12:00;;;;;;;1.40;0.40;;;29.20;17.20;;;;;;4936298;29;20199;-73
2022/12/13 07:14:28;;;;;;;1.30;0.63;;;29.10;15.80;;;;;;4919579;29;20192;-73
2022/12/13 07:16:55;;;;;;;4.57;0.70;;;28.80;15.80;;;;;;4935770;29;20188;-73
2022/12/13 07:19:23;;;;;;;4.07;0.60;;;28.60;28.20;;;;;;4936229;29;20208;-74
2022/12/13 07:21:51;;;;;;;2.83;0.97;;;28.70;30.20;;;;;;4936538;29;20188;-73
2022/12/13 07:24:19;;;;;;;4.50;0.93;;;28.40;35.00;;;;;;4935363;29;20243;-73
2022/12/13 07:26:47;;;;;;;4.27;0.63;;;28.40;36.20;;;;;;4936376;29;20239;-73
2022/12/13 07:29:15;;;;;;;6.07;0.90;;;28.20;34.00;;;;;;4935305;29;20189;-73
2022/12/13 07:31:42;;;;;;;3.10;0.70;;;28.10;37.40;;;;;;4935343;29;20212;-73
2022/12/13 07:34:10;;;;;;;3.77;0.77;;;27.90;38.70;;;;;;4936247;29;20646;-74
2022/12/13 07:36:38;;;;;;;4.97;0.80;;;27.80;41.20;;;;;;4935580;29;20287;-73
2022/12/13 07:39:06;;;;;;;2.37;0.83;;;27.80;41.80;;;;;;4935569;29;20243;-72
2022/12/13 07:41:34;;;;;;;4.80;0.80;;;27.50;44.60;;;;;;4934195;29;20688;-73
2022/12/13 07:44:01;;;;;;;7.93;0.80;;;27.40;46.80;;;;;;4935448;29;20272;-72
2022/12/13 07:46:29;;;;;;;3.93;0.90;;;27.10;47.90;;;;;;4933855;29;20185;-72
2022/12/13 07:48:57;;;;;;;8.70;1.37;;;26.80;52.10;;;;;;4935429;29;20191;-72
2022/12/13 07:51:25;;;;;;;4.33;0.70;;;26.60;52.30;;;;;;4935016;29;20225;-73
2022/12/13 07:53:53;;;;;;;2.67;0.80;;;26.50;56.70;;;;;;4934737;29;20264;-73
2022/12/13 07:56:21;;;;;;;11.70;1.37;;;26.50;62.40;;;;;;4935004;29;20762;-73
2022/12/13 07:58:49;;;;;;;5.07;1.20;;;26.50;66.40;;;;;;4935679;29;20172;-73
2022/12/13 08:01:17;;;;;;;3.47;1.20;;;26.30;67.30;;;;;;4934846;29;20199;-73
2022/12/13 08:03:46;;;;;;;6.90;1.17;;;26.30;77.90;;;;;;4935611;29;20598;-73
2022/12/13 08:06:14;;;;;;;3.97;0.97;;;26.00;82.20;;;;;;4935388;29;20192;-73
2022/12/13 08:08:42;;;;;;;4.33;0.87;;;26.00;83.30;;;;;;4934257;29;20180;-73
2022/12/13 08:14:32;;;;;;;5.47;1.20;;;25.40;90.00;;;;;;4926878;29;20265;-72
2022/12/13 08:17:00;;;;;;;6.20;1.00;;;25.00;98.00;;;;;;4936730;29;20241;-72
2022/12/13 08:19:28;;;;;;;4.03;0.97;;;24.80;98.70;;;;;;4936374;29;20240;-72
2022/12/13 08:22:37;;;;;;;4.63;1.20;;;24.60;99.90;;;;;;4936264;29;20635;-72
2022/12/13 08:25:06;;;;;;;3.77;1.17;;;24.40;99.90;;;;;;4936203;29;20530;-72
2022/12/13 08:27:34;;;;;;;2.83;1.10;;;24.10;99.90;;;;;;4936525;29;20173;-72
2022/12/13 08:30:02;;;;;;;3.70;0.70;;;24.00;99.90;;;;;;4936668;29;20192;-72
2022/12/13 08:32:30;;;;;;;4.80;1.13;;;23.80;99.90;;;;;;4936278;29;20220;-72
2022/12/13 08:34:57;;;;;;;3.93;1.37;;;23.80;99.90;;;;;;4936251;29;20184;-72
2022/12/13 08:37:25;;;;;;;4.70;1.00;;;23.70;99.90;;;;;;4936314;29;20653;-72
2022/12/13 08:39:53;;;;;;;6.17;0.80;;;23.60;99.90;;;;;;4935468;29;20661;-72
2022/12/13 08:42:21;;;;;;;2.53;1.00;;;23.50;99.90;;;;;;4936149;29;20187;-71
2022/12/13 08:44:50;;;;;;;4.80;0.93;;;23.50;99.90;;;;;;4933954;29;20544;-72
2022/12/13 08:47:21;;;;;;;4.73;0.97;;;23.50;99.90;;;;;;4933788;29;20598;-71
2022/12/13 08:49:49;;;;;;;2.17;0.70;;;23.40;99.90;;;;;;4935784;29;20207;-72
2022/12/13 08:52:18;;;;;;;4.50;1.00;;;23.20;99.90;;;;;;4935469;29;20267;-72
2022/12/13 08:58:08;;;;;;;3.33;1.00;;;23.00;99.90;;;;;;4935504;29;20179;-72
2022/12/13 09:00:37;;;;;;;3.10;1.00;;;22.80;99.90;;;;;;4921889;29;20554;-72
2022/12/13 09:03:05;;;;;;;5.70;1.20;;;22.70;99.90;;;;;;4932839;29;20185;-72
2022/12/13 09:05:34;;;;;;;5.70;1.20;;;22.60;99.90;;;;;;4935422;29;20184;-72
2022/12/13 09:08:03;;;;;;;4.03;0.97;;;22.50;99.90;;;;;;4935201;29;20203;-72
2022/12/13 09:10:31;;;;;;;7.30;1.40;;;22.50;99.90;;;;;;4935128;29;20187;-73
2022/12/13 09:12:59;;;;;;;8.33;0.90;;;22.50;99.90;;;;;;4928760;29;20632;-72
2022/12/13 09:15:31;;;;;;;8.50;1.27;;;22.40;99.90;;;;;;4934675;29;20188;-72
2022/12/13 09:17:59;;;;;;;3.57;0.87;;;22.40;99.90;;;;;;4935626;29;20211;-71
2022/12/13 09:20:27;;;;;;;3.53;0.97;;;22.20;99.90;;;;;;4935289;29;20224;-72
2022/12/13 09:22:55;;;;;;;4.10;0.90;;;22.10;99.90;;;;;;4935881;29;20181;-71
2022/12/13 09:25:22;;;;;;;9.10;1.40;;;22.00;99.90;;;;;;4935932;29;20263;-71
2022/12/13 09:27:50;;;;;;;5.33;1.47;;;21.90;99.90;;;;;;4935257;29;20654;-72
2022/12/13 09:30:18;;;;;;;8.53;1.07;;;21.80;99.90;;;;;;4933457;29;20192;-72
2022/12/13 09:32:48;;;;;;;4.00;0.90;;;21.80;99.90;;;;;;4935247;29;20188;-73
2022/12/13 09:35:16;;;;;;;4.07;1.17;;;21.70;99.90;;;;;;4935650;29;20617;-73
2022/12/13 09:37:44;;;;;;;5.20;1.00;;;21.60;99.90;;;;;;4935370;29;20718;-72
2022/12/13 09:40:23;;;;;;;3.50;1.00;;;21.50;99.90;;;;;;4935536;29;20573;-74
2022/12/13 09:42:54;;;;;;;3.17;0.87;;;21.50;99.90;;;;;;4933911;29;20192;-72
2022/12/13 09:45:22;;;;;;;7.07;1.30;;;21.40;99.90;;;;;;4935482;29;20654;-73
2022/12/13 09:47:52;;;;;;;3.37;1.33;;;21.40;99.90;;;;;;4935800;29;20184;-75
2022/12/13 09:50:32;;;;;;;4.13;1.17;;;21.40;99.90;;;;;;4935606;29;20593;-74
2022/12/13 09:53:07;;;;;;;5.80;1.27;;;21.40;99.90;;;;;;4935360;29;20275;-72
2022/12/13 09:55:49;;;;;;;2.80;0.90;;;21.40;99.90;;;;;;4937162;29;20188;-72
2022/12/13 09:58:29;;;;;;;6.03;0.90;;;21.40;99.90;;;;;;4939040;29;20215;-72
2022/12/13 10:00:57;;;;;;;7.03;1.03;;;21.30;99.90;;;;;;4939219;29;20216;-72
2022/12/13 10:03:26;;;;;;;4.57;1.00;;;21.20;99.90;;;;;;4937117;29;20228;-72
2022/12/13 10:06:00;;;;;;;6.00;1.00;;;21.10;99.90;;;;;;4939004;29;20188;-72
2022/12/13 10:08:35;;;;;;;6.50;1.27;;;21.00;99.90;;;;;;4938992;29;20184;-72
2022/12/13 10:11:03;;;;;;;5.97;1.20;;;20.90;99.90;;;;;;4939101;29;20176;-72
2022/12/13 10:13:54;;;;;;;5.07;1.10;;;20.80;99.90;;;;;;4938580;29;20673;-72
2022/12/13 10:16:33;;;;;;;5.33;1.20;;;20.80;99.90;;;;;;4938876;29;20184;-72
2022/12/13 10:19:02;;;;;;;3.60;0.83;;;20.80;99.90;;;;;;4938926;29;20192;-72
2022/12/13 10:21:43;;;;;;;8.10;1.30;;;20.70;99.90;;;;;;4938867;29;20551;-72
2022/12/13 10:24:16;;;;;;;4.20;1.47;;;20.70;99.90;;;;;;4919690;29;20173;-72
2022/12/13 10:26:44;;;;;;;10.33;1.40;;;20.70;99.90;;;;;;4919703;29;20714;-72
2022/12/13 10:29:11;;;;;;;7.43;1.50;;;20.60;99.90;;;;;;4923185;29;20191;-72
2022/12/13 10:31:44;;;;;;;4.70;1.40;;;20.50;99.90;;;;;;4938097;29;20183;-73
2022/12/13 10:34:21;;;;;;;4.37;1.20;;;20.50;99.90;;;;;;4937672;29;20188;-73
2022/12/13 10:36:48;;;;;;;4.50;1.20;;;20.40;99.90;;;;;;4937678;29;20231;-73
2022/12/13 10:39:37;;;;;;;5.37;1.37;;;20.40;99.90;;;;;;4937960;29;20259;-73
2022/12/13 10:42:12;;;;;;;6.03;1.67;;;20.40;99.90;;;;;;4936121;29;20643;-71
2022/12/13 10:44:39;;;;;;;4.20;1.30;;;20.40;99.90;;;;;;4937983;29;20184;-72
2022/12/13 10:47:17;;;;;;;3.63;1.30;;;20.30;99.90;;;;;;4938078;29;20631;-70
2022/12/13 10:50:03;;;;;;;2.77;1.17;;;20.30;99.90;;;;;;4938758;29;20273;-71
2022/12/13 10:52:39;;;;;;;4.73;1.27;;;20.20;99.90;;;;;;4919315;29;20236;-72
2022/12/13 10:55:24;;;;;;;4.63;1.60;;;20.10;99.90;;;;;;4931648;29;20187;-71
2022/12/13 10:57:54;;;;;;;5.23;1.40;;;20.20;99.90;;;;;;4938053;29;20235;-71
2022/12/13 11:00:45;;;;;;;5.83;1.20;;;20.20;99.90;;;;;;4938265;29;20631;-71
2022/12/13 11:03:33;;;;;;;7.17;1.30;;;20.10;99.90;;;;;;4938175;29;20591;-70
2022/12/13 11:06:19;;;;;;;6.73;1.60;;;20.00;99.90;;;;;;4938167;29;20616;-72
2022/12/13 11:08:47;;;;;;;6.00;1.43;;;20.10;99.90;;;;;;4937414;29;20198;-73
2022/12/13 11:11:18;;;;;;;6.23;1.20;;;20.00;99.90;;;;;;4937807;29;20262;-72
2022/12/13 11:13:53;;;;;;;5.00;1.20;;;19.90;99.90;;;;;;4920453;29;20301;-72
2022/12/13 11:16:39;;;;;;;5.00;1.47;;;19.90;99.90;;;;;;4937647;29;20186;-72
2022/12/13 11:19:17;;;;;;;3.00;1.10;;;19.80;99.90;;;;;;4919114;29;20543;-72
2022/12/13 11:21:49;;;;;;;5.33;1.20;;;19.80;99.90;;;;;;4918824;29;20182;-72
2022/12/13 11:24:30;;;;;;;4.30;1.03;;;19.70;99.90;;;;;;4918909;29;20174;-72
2022/12/13 11:27:20;;;;;;;3.80;1.40;;;19.70;99.90;;;;;;4922463;29;20192;-72
2022/12/13 11:30:16;;;;;;;4.63;1.10;;;19.60;99.90;;;;;;4937118;29;20790;-71
2022/12/13 11:33:11;;;;;;;4.77;1.10;;;19.60;99.90;;;;;;4936097;29;20192;-72
2022/12/13 11:36:05;;;;;;;5.60;1.57;;;19.50;99.90;;;;;;4937424;29;20188;-72
2022/12/13 11:38:59;;;;;;;8.80;1.30;;;19.40;99.90;;;;;;4937249;29;20184;-72
2022/12/13 11:41:39;;;;;;;2.87;1.30;;;19.20;99.90;;;;;;4937234;29;20203;-72
2022/12/13 11:44:22;;;;;;;8.00;1.57;;;19.20;99.90;;;;;;4937616;29;20177;-72
2022/12/13 11:46:58;;;;;;;8.67;1.50;;;19.20;99.90;;;;;;4937672;29;20228;-72
2022/12/13 11:49:41;;;;;;;3.80;1.13;;;19.10;99.90;;;;;;4921389;29;20203;-72
2022/12/13 11:52:23;;;;;;;4.67;1.27;;;19.00;99.90;;;;;;4937164;29;20592;-72
2022/12/13 11:54:57;;;;;;;4.60;1.10;;;19.00;99.90;;;;;;4937126;29;20172;-72
2022/12/13 11:57:46;;;;;;;6.10;1.33;;;18.80;99.90;;;;;;4937409;29;20536;-72
2022/12/13 12:00:35;;;;;;;6.63;1.30;;;18.80;99.90;;;;;;4937203;29;20583;-72
2022/12/13 12:03:19;;;;;;;3.20;1.50;;;18.70;99.90;;;;;;4937070;29;20673;-73
2022/12/13 12:06:24;;;;;;;6.87;1.60;;;18.60;99.90;;;;;;4937221;29;20274;-72
2022/12/13 12:09:04;;;;;;;5.87;1.30;;;18.60;99.90;;;;;;4935470;29;20228;-72
2022/12/13 12:12:06;;;;;;;3.53;1.30;;;18.60;99.90;;;;;;4936996;29;20178;-72
2022/12/13 12:14:45;;;;;;;4.00;0.93;;;18.60;99.90;;;;;;4935518;29;20180;-72
2022/12/13 12:17:15;;;;;;;4.50;1.40;;;18.50;99.90;;;;;;4936999;29;20192;-71
2022/12/13 12:19:45;;;;;;;6.63;1.40;;;18.40;99.90;;;;;;4935962;29;20200;-72
2022/12/13 12:22:40;;;;;;;5.67;1.23;;;18.40;99.90;;;;;;4936522;29;20280;-72
2022/12/13 12:25:26;;;;;;;6.10;1.50;;;18.30;99.90;;;;;;4936759;29;20188;-72
2022/12/13 12:28:37;;;;;;;6.97;1.50;;;18.30;99.90;;;;;;4936448;29;20220;-72
2022/12/13 12:31:12;;;;;;;5.37;1.13;;;18.20;99.90;;;;;;4877823;29;20278;-72
2022/12/13 12:33:51;;;;;;;3.53;1.23;;;18.20;99.90;;;;;;4932259;29;20198;-72
2022/12/13 12:36:46;;;;;;;6.30;1.37;;;18.10;99.90;;;;;;4936249;29;20198;-72
2022/12/13 12:39:13;;;;;;;5.40;1.30;;;18.10;99.90;;;;;;4916006;29;20639;-72
2022/12/13 12:41:59;;;;;;;5.87;1.70;;;18.10;99.90;;;;;;4917425;29;20208;-73
2022/12/13 12:44:27;;;;;;;9.50;1.60;;;18.10;99.90;;;;;;4917648;29;20181;-73
2022/12/13 12:47:16;;;;;;;6.03;1.50;;;18.00;99.90;;;;;;4920758;29;20177;-72
2022/12/13 12:49:55;;;;;;;6.87;2.17;;;17.90;99.90;;;;;;4936666;29;20252;-71
2022/12/13 12:52:49;;;;;;;3.33;1.60;;;17.90;99.90;;;;;;4936275;29;20228;-72
2022/12/13 12:55:22;;;;;;;5.00;2.20;;;17.80;99.90;;;;;;4934870;29;20177;-73
2022/12/13 12:58:19;;;;;;;6.73;1.83;;;17.70;99.90;;;;;;4936024;29;20188;-73
2022/12/13 13:01:27;;;;;;;5.67;2.13;;;17.70;99.90;;;;;;4936208;29;20258;-72
2022/12/13 13:04:02;;;;;;;5.30;1.70;;;17.60;99.90;;;;;;4936036;29;20185;-74
2022/12/13 13:06:41;;;;;;;4.87;1.50;;;17.60;99.90;;;;;;4935945;29;20639;-71
2022/12/13 13:09:12;;;;;;;4.87;1.57;;;17.50;99.90;;;;;;4934406;29;20274;-72
2022/12/13 13:11:41;;;;;;;5.17;1.97;;;17.50;99.90;;;;;;4936441;29;20168;-72
2022/12/13 13:14:28;;;;;;;3.80;1.47;;;17.40;99.90;;;;;;4935713;29;20197;-72
2022/12/13 13:16:57;;;;;;;6.40;1.97;;;17.40;99.90;;;;;;4935602;29;20189;-72
2022/12/13 13:19:31;;;;;;;5.03;1.90;;;17.30;99.90;;;;;;4935958;29;20205;-71
2022/12/13 13:21:59;;;;;;;3.93;1.50;;;17.40;99.90;;;;;;4936256;29;20189;-72
2022/12/13 13:24:31;;;;;;;6.67;1.60;;;17.40;99.90;;;;;;4918855;29;20180;-72
2022/12/13 13:27:00;;;;;;;3.90;1.37;;;17.50;99.90;;;;;;4935753;29;20193;-72
2022/12/13 13:29:33;;;;;;;8.73;1.73;;;17.50;99.90;;;;;;4935947;29;20259;-73